M I D A S
Marine Information and Data Acquisition System
Tripno 1224 of the Zeeleeuw from 2007-03-05 08:13:01 to 2007-03-05 14:10:23
Back to CruiseResearch ActivitiesStationsMapUnderway DataData graphs

EquipmentUnitsComments
TimeDGPSUTC
LatitudeDGPSDM.mWGS84
LongitudeDGPSDM.mWGS84
SpeedMeteo Stationm/sRelative wind speed
DirectionMeteo StationdegRelative wind direction
TemperatureMeteo Stationdeg CelciusAir temperature
PressureMeteo StationPaAtmospheric pressure
HumidityMeteo Station%Relative humidity
Missing or incorrect values are displayed as -999
Metereological data collected by the RV Zeeleeuw from 2007-03-05 08:16:05 to 2007-03-05 14:20:24
                                                                                    Next 1000 lines
Time Latitude Longitude Speed Direction Temperature Pressure Humidity
2007-03-05 08:16:15 51°13.6 2°56.093 4.3 40 5.8 101190 97
2007-03-05 08:16:20 51°13.601 2°56.09 5.5 34 5.8 101190 97
2007-03-05 08:16:25 51°13.602 2°56.085 3.4 43 5.8 101190 97
2007-03-05 08:16:31 51°13.604 2°56.08 5.1 36 5.8 101190 97
2007-03-05 08:16:37 51°13.605 2°56.073 4.7 38 5.8 101190 97
2007-03-05 08:16:42 51°13.607 2°56.066 4.8 19 5.8 101180 97
2007-03-05 08:16:48 51°13.609 2°56.057 4.3 36 5.8 101180 97
2007-03-05 08:16:53 51°13.611 2°56.05 3.9 26 5.8 101180 97
2007-03-05 08:16:58 51°13.613 2°56.043 4.8 36 5.8 101180 97
2007-03-05 08:17:04 51°13.615 2°56.034 5.5 20 5.8 101180 97
2007-03-05 08:17:09 51°13.617 2°56.026 8 74 5.8 101180 97
2007-03-05 08:17:14 51°13.619 2°56.019 8.5 41 5.8 101180 97
2007-03-05 08:17:18 51°13.62 2°56.013 5.4 82 5.8 101180 97
2007-03-05 08:17:24 51°13.623 2°56.003 5.3 39 5.8 101180 97
2007-03-05 08:17:29 51°13.625 2°55.995 4.4 81 5.8 101180 97
2007-03-05 08:17:34 51°13.627 2°55.988 5.8 24 5.8 101180 97
2007-03-05 08:17:39 51°13.63 2°55.98 7.3 81 5.8 101180 97
2007-03-05 08:17:43 51°13.631 2°55.974 4.8 27 5.8 101180 97
2007-03-05 08:17:49 51°13.634 2°55.965 6.4 75 5.8 101180 97
2007-03-05 08:17:54 51°13.637 2°55.957 6.9 43 5.8 101180 98
2007-03-05 08:17:59 51°13.639 2°55.949 5 80 5.8 101180 98
2007-03-05 08:18:03 51°13.641 2°55.943 5.5 20 5.8 101180 98
2007-03-05 08:18:08 51°13.644 2°55.935 5.9 75 5.8 101180 98
2007-03-05 08:18:14 51°13.647 2°55.925 4.9 24 5.8 101180 98
2007-03-05 08:18:19 51°13.65 2°55.918 5.6 79 5.8 101180 98
2007-03-05 08:18:23 51°13.652 2°55.912 5 38 5.8 101180 98
2007-03-05 08:18:28 51°13.654 2°55.904 4.6 79 5.8 101180 98
2007-03-05 08:18:33 51°13.657 2°55.897 6.6 31 5.8 101180 98
2007-03-05 08:18:38 51°13.659 2°55.89 5.9 75 5.8 101180 98
2007-03-05 08:18:43 51°13.662 2°55.883 4.4 35 5.8 101170 98
2007-03-05 08:18:48 51°13.665 2°55.877 5.1 77 5.8 101170 98
2007-03-05 08:18:53 51°13.667 2°55.87 6 38 5.8 101170 98
2007-03-05 08:18:58 51°13.669 2°55.863 6.2 45 5.8 101170 98
2007-03-05 08:19:03 51°13.671 2°55.857 5.7 42 5.8 101170 98
2007-03-05 08:19:08 51°13.674 2°55.851 5.3 35 5.8 101170 98
2007-03-05 08:19:12 51°13.675 2°55.846 5 34 5.8 101170 98
2007-03-05 08:19:17 51°13.677 2°55.84 4.7 38 5.8 101170 98
2007-03-05 08:19:23 51°13.68 2°55.834 3.5 27 5.9 101170 98
2007-03-05 08:19:27 51°13.681 2°55.83 3.6 45 5.9 101170 98
2007-03-05 08:19:32 51°13.683 2°55.824 2.9 42 5.9 101170 98
2007-03-05 08:19:37 51°13.685 2°55.819 3 41 5.9 101170 98
2007-03-05 08:19:42 51°13.686 2°55.814 4 35 5.9 101170 98
2007-03-05 08:19:47 51°13.688 2°55.809 7 75 5.9 101170 98
2007-03-05 08:19:52 51°13.689 2°55.804 4.4 20 5.9 101170 98
2007-03-05 08:19:57 51°13.691 2°55.799 3.1 20 5.9 101170 98
2007-03-05 08:20:01 51°13.692 2°55.796 4.2 28 5.9 101170 98
2007-03-05 08:20:07 51°13.693 2°55.79 2.7 32 5.9 101170 98
2007-03-05 08:20:11 51°13.694 2°55.787 3.8 39 5.9 101170 98
2007-03-05 08:20:16 51°13.695 2°55.784 3.5 82 5.9 101170 98
2007-03-05 08:20:21 51°13.696 2°55.78 3.7 27 5.9 101170 98
2007-03-05 08:20:26 51°13.697 2°55.777 4.7 79 5.9 101170 98
2007-03-05 08:20:31 51°13.698 2°55.775 4.8 23 5.9 101170 98
2007-03-05 08:20:36 51°13.698 2°55.774 3.8 79 5.9 101170 98
2007-03-05 08:20:41 51°13.698 2°55.773 2.2 20 5.9 101180 98
2007-03-05 08:20:46 51°13.699 2°55.773 1.7 82 5.9 101180 98
2007-03-05 08:20:51 51°13.699 2°55.774 2.2 20 5.9 101170 98
2007-03-05 08:20:56 51°13.7 2°55.774 1.9 29 5.9 101170 98
2007-03-05 08:21:00 51°13.701 2°55.775 1.5 25 6 101170 98
2007-03-05 08:21:05 51°13.702 2°55.775 1.9 43 6 101170 98
2007-03-05 08:21:10 51°13.703 2°55.775 4.2 19 6 101170 98
2007-03-05 08:21:15 51°13.704 2°55.775 1.9 80 6 101170 98
2007-03-05 08:21:20 51°13.704 2°55.774 4.5 19 6 101170 98
2007-03-05 08:21:25 51°13.704 2°55.772 2.5 44 6 101170 98
2007-03-05 08:21:30 51°13.704 2°55.771 3.9 22 6 101180 98
2007-03-05 08:21:35 51°13.704 2°55.769 3.4 81 6 101180 98
2007-03-05 08:21:40 51°13.704 2°55.767 5.5 21 6 101180 98
2007-03-05 08:21:45 51°13.703 2°55.765 5.6 75 6 101180 98
2007-03-05 08:21:50 51°13.703 2°55.763 6.4 23 6 101190 98
2007-03-05 08:21:55 51°13.702 2°55.761 7.4 81 6 101190 98
2007-03-05 08:22:00 51°13.702 2°55.758 6 18 6.1 101180 98
2007-03-05 08:22:05 51°13.701 2°55.756 6.4 79 6.1 101180 98
2007-03-05 08:22:10 51°13.701 2°55.754 5.6 24 6.1 101180 98
2007-03-05 08:22:15 51°13.7 2°55.752 2.8 75 6.1 101180 98
2007-03-05 08:22:20 51°13.699 2°55.75 4 43 6.1 101190 98
2007-03-05 08:22:25 51°13.699 2°55.749 3.5 75 6.1 101190 98
2007-03-05 08:22:30 51°13.698 2°55.747 2.7 23 6.1 101170 98
2007-03-05 08:22:35 51°13.698 2°55.746 1.6 44 6.1 101170 98
2007-03-05 08:22:40 51°13.698 2°55.745 1.6 27 6.1 101180 98
2007-03-05 08:22:45 51°13.698 2°55.744 2.7 77 6.1 101180 98
2007-03-05 08:22:50 51°13.698 2°55.743 2.2 34 6.1 101170 98
2007-03-05 08:22:55 51°13.698 2°55.743 1.8 35 6.1 101170 98
2007-03-05 08:23:00 51°13.698 2°55.743 1.8 25 6.1 101180 98
2007-03-05 08:23:05 51°13.698 2°55.743 1.6 43 6.1 101180 98
2007-03-05 08:23:10 51°13.698 2°55.744 3.9 28 6.1 101170 98
2007-03-05 08:23:15 51°13.698 2°55.745 3.1 81 6.1 101170 98
2007-03-05 08:23:20 51°13.698 2°55.745 3.5 23 6.1 101170 98
2007-03-05 08:23:25 51°13.7 2°55.745 3.1 280 6.1 101170 98
2007-03-05 08:23:30 51°13.701 2°55.744 3 20 6.1 101170 98
2007-03-05 08:23:35 51°13.703 2°55.744 3.4 280 6.1 101170 98
2007-03-05 08:23:40 51°13.704 2°55.744 4.8 263 6.1 101180 98
2007-03-05 08:23:45 51°13.705 2°55.746 4 281 6.1 101180 98
2007-03-05 08:23:50 51°13.706 2°55.746 5.4 256 6.1 101170 98
2007-03-05 08:23:55 51°13.707 2°55.747 4.5 283 6.1 101170 98
2007-03-05 08:24:00 51°13.708 2°55.746 3.6 251 6.1 101170 98
2007-03-05 08:24:05 51°13.711 2°55.746 4.3 282 6.1 101170 98
2007-03-05 08:24:10 51°13.714 2°55.745 5.8 28 6.1 101170 98
2007-03-05 08:24:15 51°13.717 2°55.743 5.4 281 6.1 101170 98
2007-03-05 08:24:20 51°13.72 2°55.741 3.4 25 6.1 101180 98
2007-03-05 08:24:25 51°13.724 2°55.738 3.5 281 6.1 101180 98
2007-03-05 08:24:30 51°13.728 2°55.734 3.7 325 6.1 101180 98
2007-03-05 08:24:35 51°13.732 2°55.73 3.8 286 6.1 101180 98
2007-03-05 08:24:40 51°13.736 2°55.725 4.6 24 6.1 101180 98
2007-03-05 08:24:45 51°13.742 2°55.72 4.6 281 6.1 101180 98
2007-03-05 08:24:50 51°13.747 2°55.715 3.5 23 6.1 101180 98
2007-03-05 08:24:55 51°13.753 2°55.708 3.4 287 6.1 101180 98
2007-03-05 08:25:00 51°13.76 2°55.702 4.6 19 6.1 101160 98
2007-03-05 08:25:05 51°13.767 2°55.695 5.6 285 6.1 101160 98
2007-03-05 08:25:10 51°13.774 2°55.689 6.4 320 6.2 101160 98
2007-03-05 08:25:15 51°13.782 2°55.682 7.1 284 6.2 101160 98
2007-03-05 08:25:20 51°13.79 2°55.675 5.9 26 6.2 101160 98
2007-03-05 08:25:24 51°13.797 2°55.67 6.7 281 6.2 101160 98
2007-03-05 08:25:30 51°13.807 2°55.662 5.5 325 6.2 101160 98
2007-03-05 08:25:35 51°13.816 2°55.656 5.7 285 6.2 101160 98
2007-03-05 08:25:40 51°13.825 2°55.649 4.9 319 6.2 101160 98
2007-03-05 08:25:45 51°13.835 2°55.642 5.1 280 6.2 101160 98
2007-03-05 08:25:50 51°13.845 2°55.635 2.9 24 6.2 101160 98
2007-03-05 08:25:55 51°13.855 2°55.627 2.5 282 6.2 101160 98
2007-03-05 08:26:00 51°13.865 2°55.62 3 327 6.2 101160 98
2007-03-05 08:26:05 51°13.875 2°55.612 4.8 285 6.2 101160 98
2007-03-05 08:26:10 51°13.885 2°55.605 8 315 6.2 101160 98
2007-03-05 08:26:15 51°13.896 2°55.597 7.4 286 6.2 101160 98
2007-03-05 08:26:20 51°13.906 2°55.59 6.4 21 6.2 101160 98
2007-03-05 08:26:25 51°13.916 2°55.583 4.1 285 6.2 101160 98
2007-03-05 08:26:30 51°13.927 2°55.575 5.5 19 6.2 101160 98
2007-03-05 08:26:35 51°13.937 2°55.567 6 280 6.2 101160 98
2007-03-05 08:26:40 51°13.947 2°55.559 4.6 24 6.3 101160 98
2007-03-05 08:26:45 51°13.957 2°55.551 6.4 279 6.3 101160 98
2007-03-05 08:26:50 51°13.968 2°55.543 6.5 25 6.3 101160 98
2007-03-05 08:26:55 51°13.978 2°55.535 4.7 279 6.3 101160 98
2007-03-05 08:27:00 51°13.988 2°55.528 4.2 21 6.3 101160 98
2007-03-05 08:27:05 51°13.998 2°55.52 3.9 281 6.3 101160 98
2007-03-05 08:27:10 51°14.008 2°55.512 4.7 317 6.3 101160 98
2007-03-05 08:27:15 51°14.019 2°55.504 3.9 284 6.3 101160 98
2007-03-05 08:27:20 51°14.029 2°55.496 6.4 316 6.3 101170 98
2007-03-05 08:27:25 51°14.039 2°55.489 9 282 6.3 101170 98
2007-03-05 08:27:30 51°14.049 2°55.481 7.3 21 6.3 101170 98
2007-03-05 08:27:35 51°14.06 2°55.473 8.6 281 6.3 101170 98
2007-03-05 08:27:40 51°14.07 2°55.466 6.3 21 6.3 101170 98
2007-03-05 08:27:45 51°14.08 2°55.458 4.2 281 6.3 101170 98
2007-03-05 08:27:49 51°14.088 2°55.452 5.9 322 6.3 101170 98
2007-03-05 08:27:55 51°14.1 2°55.443 5.6 281 6.3 101170 98
2007-03-05 08:28:00 51°14.11 2°55.435 5.7 315 6.3 101160 98
2007-03-05 08:28:05 51°14.121 2°55.427 4.1 281 6.3 101160 98
2007-03-05 08:28:10 51°14.13 2°55.419 4.4 20 6.3 101160 98
2007-03-05 08:28:15 51°14.141 2°55.411 12.7 282 6.3 101160 98
2007-03-05 08:28:20 51°14.15 2°55.403 9.1 22 6.3 101160 98
2007-03-05 08:28:25 51°14.16 2°55.395 10.8 283 6.3 101160 98
2007-03-05 08:28:30 51°14.17 2°55.386 9.8 23 6.3 101170 98
2007-03-05 08:28:35 51°14.18 2°55.377 11.6 278 6.3 101170 98
2007-03-05 08:28:40 51°14.189 2°55.368 11.7 21 6.4 101170 98
2007-03-05 08:28:45 51°14.198 2°55.358 12.3 284 6.4 101170 98
2007-03-05 08:28:50 51°14.207 2°55.348 11.6 23 6.3 101160 98
2007-03-05 08:28:55 51°14.216 2°55.338 13.2 279 6.3 101160 98
2007-03-05 08:29:00 51°14.225 2°55.327 12 23 6.4 101160 98
2007-03-05 08:29:05 51°14.233 2°55.316 11.9 282 6.4 101160 98
2007-03-05 08:29:10 51°14.241 2°55.304 13.3 22 6.4 101150 98
2007-03-05 08:29:16 51°14.251 2°55.29 13.2 282 6.4 101150 98
2007-03-05 08:29:21 51°14.259 2°55.278 14.4 21 6.4 101140 98
2007-03-05 08:29:26 51°14.266 2°55.265 11.4 284 6.4 101140 98
2007-03-05 08:29:31 51°14.274 2°55.253 10.4 26 6.4 101150 98
2007-03-05 08:29:36 51°14.281 2°55.239 9.8 282 6.4 101150 98
2007-03-05 08:29:41 51°14.288 2°55.226 10.8 25 6.4 101150 98
2007-03-05 08:29:46 51°14.295 2°55.212 10.5 283 6.4 101150 98
2007-03-05 08:29:51 51°14.303 2°55.199 12 21 6.4 101150 98
2007-03-05 08:29:56 51°14.31 2°55.186 10.8 282 6.4 101150 98
2007-03-05 08:30:01 51°14.317 2°55.173 13.6 20 6.4 101150 98
2007-03-05 08:30:06 51°14.325 2°55.159 8.9 284 6.4 101150 98
2007-03-05 08:30:11 51°14.333 2°55.146 12.4 20 6.4 101170 98
2007-03-05 08:30:16 51°14.341 2°55.133 12.7 284 6.4 101170 98
2007-03-05 08:30:20 51°14.348 2°55.122 14.6 26 6.4 101150 98
2007-03-05 08:30:25 51°14.356 2°55.109 15.7 282 6.4 101150 98
2007-03-05 08:30:30 51°14.365 2°55.095 15.5 23 6.4 101140 98
2007-03-05 08:30:35 51°14.374 2°55.082 12.9 278 6.4 101140 98
2007-03-05 08:30:40 51°14.384 2°55.068 13.6 21 6.4 101120 98
2007-03-05 08:30:45 51°14.393 2°55.055 15.7 283 6.4 101120 98
2007-03-05 08:30:50 51°14.403 2°55.042 15.6 24 6.4 101110 98
2007-03-05 08:30:55 51°14.414 2°55.03 14.7 281 6.4 101110 98
2007-03-05 08:31:00 51°14.424 2°55.018 14.2 19 6.4 101110 98
2007-03-05 08:31:05 51°14.435 2°55.008 15 283 6.4 101110 98
2007-03-05 08:31:10 51°14.447 2°54.998 13.7 22 6.5 101110 98
2007-03-05 08:31:15 51°14.458 2°54.989 14.9 285 6.5 101110 98
2007-03-05 08:31:20 51°14.47 2°54.98 16.8 247 6.5 101110 98
2007-03-05 08:31:25 51°14.482 2°54.971 16.5 280 6.5 101110 98
2007-03-05 08:31:30 51°14.494 2°54.962 15.3 21 6.5 101100 98
2007-03-05 08:31:35 51°14.505 2°54.953 13 280 6.5 101100 98
2007-03-05 08:31:40 51°14.517 2°54.943 13.9 20 6.5 101110 98
2007-03-05 08:31:45 51°14.529 2°54.933 15.8 284 6.5 101110 98
2007-03-05 08:31:50 51°14.541 2°54.924 13.9 21 6.5 101100 98
2007-03-05 08:31:55 51°14.552 2°54.914 15.7 281 6.5 101100 98
2007-03-05 08:32:00 51°14.564 2°54.904 11.2 26 6.5 101120 98
2007-03-05 08:32:05 51°14.576 2°54.894 12.5 282 6.5 101120 98
2007-03-05 08:32:09 51°14.585 2°54.886 14 25 6.5 101110 98
2007-03-05 08:32:15 51°14.599 2°54.873 15.8 281 6.5 101110 98
2007-03-05 08:32:19 51°14.608 2°54.865 15.9 24 6.5 101120 98
2007-03-05 08:32:24 51°14.619 2°54.854 13.8 279 6.5 101120 98
2007-03-05 08:32:29 51°14.63 2°54.843 13.9 25 6.6 101130 98
2007-03-05 08:32:35 51°14.643 2°54.83 16.4 284 6.6 101130 98
2007-03-05 08:32:40 51°14.654 2°54.818 13 27 6.6 101110 98
2007-03-05 08:32:44 51°14.663 2°54.809 12.6 277 6.6 101110 98
2007-03-05 08:32:49 51°14.674 2°54.797 13.5 25 6.6 101120 98
2007-03-05 08:32:54 51°14.685 2°54.787 14.4 282 6.6 101120 98
2007-03-05 08:32:59 51°14.696 2°54.776 13.9 24 6.6 101110 98
2007-03-05 08:33:04 51°14.707 2°54.765 14.2 278 6.6 101110 98
2007-03-05 08:33:09 51°14.718 2°54.754 11.3 22 6.6 101120 98
2007-03-05 08:33:15 51°14.732 2°54.74 12.7 282 6.6 101120 98
2007-03-05 08:33:19 51°14.741 2°54.731 15.2 22 6.6 101120 98
2007-03-05 08:33:24 51°14.753 2°54.72 14 283 6.6 101120 98
2007-03-05 08:33:29 51°14.765 2°54.708 16.6 25 6.7 101120 99
2007-03-05 08:33:35 51°14.78 2°54.694 16.3 283 6.7 101120 99
2007-03-05 08:33:39 51°14.79 2°54.685 16.4 25 6.7 101120 99
2007-03-05 08:33:44 51°14.803 2°54.673 13.5 286 6.7 101120 99
2007-03-05 08:33:50 51°14.818 2°54.659 16.3 24 6.7 101110 99
2007-03-05 08:33:55 51°14.832 2°54.647 16.2 283 6.7 101110 99
2007-03-05 08:33:59 51°14.842 2°54.637 14.2 23 6.7 101090 99
2007-03-05 08:34:04 51°14.856 2°54.624 14.4 284 6.7 101090 99
2007-03-05 08:34:09 51°14.87 2°54.611 12.3 19 6.7 101100 98
2007-03-05 08:34:15 51°14.887 2°54.594 14.3 285 6.7 101100 98
2007-03-05 08:34:19 51°14.899 2°54.584 16.7 23 6.7 101100 98
2007-03-05 08:34:24 51°14.913 2°54.57 13.8 283 6.7 101100 98
2007-03-05 08:34:29 51°14.928 2°54.556 16.9 23 6.7 101080 98
2007-03-05 08:34:35 51°14.945 2°54.538 16.4 282 6.7 101080 98
2007-03-05 08:34:39 51°14.957 2°54.527 14.8 26 6.7 101090 98
2007-03-05 08:34:44 51°14.971 2°54.512 17.8 280 6.7 101090 98
2007-03-05 08:34:49 51°14.985 2°54.497 14.5 23 6.7 101080 98
2007-03-05 08:34:55 51°15.003 2°54.479 13.9 281 6.7 101080 98
2007-03-05 08:35:00 51°15.016 2°54.464 14.4 22 6.7 101080 98
2007-03-05 08:35:04 51°15.028 2°54.452 16.1 281 6.7 101080 98
2007-03-05 08:35:09 51°15.041 2°54.436 14.3 25 6.7 101080 98
2007-03-05 08:35:15 51°15.058 2°54.418 15.3 286 6.7 101080 98
2007-03-05 08:35:20 51°15.071 2°54.403 13 21 6.7 101080 98
2007-03-05 08:35:24 51°15.082 2°54.391 14 283 6.7 101080 98
2007-03-05 08:35:29 51°15.096 2°54.375 14.5 19 6.7 101080 98
2007-03-05 08:35:35 51°15.113 2°54.357 14.5 279 6.7 101080 98
2007-03-05 08:35:40 51°15.127 2°54.342 14.3 23 6.7 101080 98
2007-03-05 08:35:45 51°15.141 2°54.327 14.8 282 6.7 101080 98
2007-03-05 08:35:49 51°15.153 2°54.316 14 24 6.7 101090 98
2007-03-05 08:35:54 51°15.168 2°54.302 13.8 284 6.7 101090 98
2007-03-05 08:35:59 51°15.183 2°54.288 17.4 21 6.8 101090 98
2007-03-05 08:36:05 51°15.201 2°54.27 15.4 282 6.8 101090 98
2007-03-05 08:36:10 51°15.216 2°54.255 14.5 23 6.8 101090 98
2007-03-05 08:36:15 51°15.23 2°54.241 15.5 285 6.8 101090 98
2007-03-05 08:36:19 51°15.242 2°54.229 14.6 20 6.7 101090 98
2007-03-05 08:36:24 51°15.257 2°54.213 15.4 280 6.7 101090 98
2007-03-05 08:36:29 51°15.271 2°54.198 15 22 6.7 101080 98
2007-03-05 08:36:35 51°15.289 2°54.179 16.5 283 6.7 101080 98
2007-03-05 08:36:40 51°15.304 2°54.164 15.3 20 6.7 101090 98
2007-03-05 08:36:44 51°15.315 2°54.152 16.2 281 6.7 101090 98
2007-03-05 08:36:49 51°15.33 2°54.137 16.9 25 6.8 101080 98
2007-03-05 08:36:55 51°15.349 2°54.118 14.5 281 6.8 101080 98
2007-03-05 08:36:59 51°15.361 2°54.107 15 25 6.7 101090 98
2007-03-05 08:37:05 51°15.379 2°54.089 17.7 283 6.7 101090 98
2007-03-05 08:37:09 51°15.391 2°54.077 15.4 22 6.7 101070 98
2007-03-05 08:37:15 51°15.409 2°54.059 13.6 282 6.7 101070 98
2007-03-05 08:37:20 51°15.424 2°54.043 17.4 21 6.7 101070 98
2007-03-05 08:37:24 51°15.437 2°54.031 18.3 281 6.7 101070 98
2007-03-05 08:37:29 51°15.452 2°54.016 16.2 23 6.7 101090 98
2007-03-05 08:37:34 51°15.467 2°54 14.2 284 6.7 101090 98
2007-03-05 08:37:39 51°15.483 2°53.986 17.8 20 6.7 101080 98
2007-03-05 08:37:45 51°15.501 2°53.968 15.2 284 6.7 101080 98
2007-03-05 08:37:49 51°15.514 2°53.955 14.7 25 6.7 101080 98
2007-03-05 08:37:55 51°15.532 2°53.937 14.7 281 6.7 101080 98
2007-03-05 08:37:59 51°15.545 2°53.925 15 23 6.7 101160 98
2007-03-05 08:38:04 51°15.56 2°53.91 13.7 280 6.7 101160 98
2007-03-05 08:38:10 51°15.579 2°53.891 16.2 24 6.7 101150 98
2007-03-05 08:38:15 51°15.594 2°53.877 15.8 281 6.7 101150 98
2007-03-05 08:38:19 51°15.606 2°53.864 14.8 25 6.7 101170 98
2007-03-05 08:38:25 51°15.625 2°53.846 15.8 279 6.7 101170 98
2007-03-05 08:38:30 51°15.64 2°53.83 14.8 21 6.8 101170 98
2007-03-05 08:38:35 51°15.655 2°53.814 14.9 284 6.8 101170 98
2007-03-05 08:38:39 51°15.668 2°53.802 13.9 23 6.8 101080 98
2007-03-05 08:38:44 51°15.683 2°53.786 15.3 285 6.8 101080 98
2007-03-05 08:38:50 51°15.701 2°53.768 13.5 22 6.8 101090 98
2007-03-05 08:38:55 51°15.717 2°53.752 14 282 6.8 101090 98
2007-03-05 08:39:00 51°15.732 2°53.736 14.7 24 6.8 101080 98
2007-03-05 08:39:04 51°15.744 2°53.724 13.7 282 6.8 101080 98
2007-03-05 08:39:09 51°15.759 2°53.709 14 22 6.8 101090 98
2007-03-05 08:39:14 51°15.775 2°53.695 12.2 283 6.8 101090 98
2007-03-05 08:39:19 51°15.791 2°53.681 17.1 26 6.8 101080 99
2007-03-05 08:39:25 51°15.808 2°53.662 14.9 282 6.8 101080 99
2007-03-05 08:39:29 51°15.821 2°53.65 14.8 22 6.8 101090 99
2007-03-05 08:39:35 51°15.839 2°53.631 11.5 280 6.8 101090 99
2007-03-05 08:39:40 51°15.854 2°53.616 13.1 21 6.8 101080 98
2007-03-05 08:39:44 51°15.866 2°53.604 14.6 284 6.8 101080 98
2007-03-05 08:39:50 51°15.885 2°53.586 16.1 21 6.8 101080 98
2007-03-05 08:39:55 51°15.9 2°53.57 14.7 280 6.8 101080 98
2007-03-05 08:39:59 51°15.912 2°53.557 16.9 24 6.7 101080 98
2007-03-05 08:40:05 51°15.93 2°53.538 13.1 283 6.7 101080 98
2007-03-05 08:40:09 51°15.942 2°53.526 14.6 21 6.7 101080 98
2007-03-05 08:40:15 51°15.96 2°53.507 15.4 283 6.7 101080 98
2007-03-05 08:40:19 51°15.972 2°53.495 14.2 22 6.7 101060 98
2007-03-05 08:40:24 51°15.987 2°53.48 16.1 281 6.7 101060 98
2007-03-05 08:40:29 51°16.002 2°53.464 16.7 22 6.7 101070 98
2007-03-05 08:40:34 51°16.018 2°53.449 16.1 283 6.7 101070 98
2007-03-05 08:40:39 51°16.032 2°53.433 14.4 24 6.7 101060 98
2007-03-05 08:40:44 51°16.047 2°53.417 16.9 282 6.7 101060 98
2007-03-05 08:40:50 51°16.065 2°53.399 14 21 6.7 101060 98
2007-03-05 08:40:55 51°16.08 2°53.382 15.3 279 6.7 101060 98
2007-03-05 08:40:59 51°16.092 2°53.37 13.6 23 6.7 101060 98
2007-03-05 08:41:04 51°16.107 2°53.354 13.8 279 6.7 101060 98
2007-03-05 08:41:09 51°16.122 2°53.338 11.8 21 6.7 101060 98
2007-03-05 08:41:15 51°16.14 2°53.319 13.3 284 6.7 101060 98
2007-03-05 08:41:19 51°16.152 2°53.307 12.4 25 6.7 101070 98
2007-03-05 08:41:24 51°16.167 2°53.291 12.6 282 6.7 101070 98
2007-03-05 08:41:29 51°16.182 2°53.275 12.7 19 6.7 101070 98
2007-03-05 08:41:34 51°16.197 2°53.259 13.9 282 6.7 101070 98
2007-03-05 08:41:39 51°16.212 2°53.244 12.9 25 6.7 101080 98
2007-03-05 08:41:44 51°16.227 2°53.228 13.7 280 6.7 101080 98
2007-03-05 08:41:49 51°16.242 2°53.213 12.8 26 6.7 101070 98
2007-03-05 08:41:55 51°16.26 2°53.194 12 284 6.7 101070 98
2007-03-05 08:42:00 51°16.275 2°53.178 12.8 24 6.7 101080 98
2007-03-05 08:42:04 51°16.287 2°53.166 14.7 285 6.7 101080 98
2007-03-05 08:42:10 51°16.305 2°53.148 12.5 23 6.7 101070 98
2007-03-05 08:42:15 51°16.32 2°53.132 13.9 282 6.7 101070 98
2007-03-05 08:42:19 51°16.332 2°53.12 12.6 22 6.7 101060 98
2007-03-05 08:42:25 51°16.351 2°53.102 10.9 283 6.7 101060 98
2007-03-05 08:42:29 51°16.363 2°53.09 11.5 22 6.7 101070 98
2007-03-05 08:42:35 51°16.381 2°53.071 13.8 285 6.7 101070 98
2007-03-05 08:42:39 51°16.393 2°53.059 12.3 24 6.7 101070 98
2007-03-05 08:42:44 51°16.408 2°53.043 10.3 279 6.7 101070 98
2007-03-05 08:42:49 51°16.423 2°53.028 10.7 243 6.7 101070 98
2007-03-05 08:42:54 51°16.438 2°53.013 11.1 282 6.7 101070 98
2007-03-05 08:42:59 51°16.454 2°52.999 11 21 6.7 101070 98
2007-03-05 08:43:04 51°16.47 2°52.987 12.2 282 6.7 101070 98
2007-03-05 08:43:09 51°16.486 2°52.975 11.3 247 6.7 101080 98
2007-03-05 08:43:15 51°16.506 2°52.964 13.3 279 6.7 101080 98
2007-03-05 08:43:19 51°16.519 2°52.957 11.7 250 6.7 101080 98
2007-03-05 08:43:24 51°16.536 2°52.948 11.7 280 6.7 101080 98
2007-03-05 08:43:29 51°16.554 2°52.941 11.1 245 6.7 101070 98
2007-03-05 08:43:35 51°16.574 2°52.932 13.9 284 6.7 101070 98
2007-03-05 08:43:40 51°16.591 2°52.925 13.3 248 6.7 101080 98
2007-03-05 08:43:44 51°16.605 2°52.919 12.1 282 6.7 101080 98
2007-03-05 08:43:49 51°16.622 2°52.911 13.6 25 6.7 101080 98
2007-03-05 08:43:54 51°16.638 2°52.901 11 281 6.7 101080 98
2007-03-05 08:44:00 51°16.658 2°52.89 13.4 246 6.7 101080 98
2007-03-05 08:44:05 51°16.675 2°52.881 11.9 278 6.7 101080 98
2007-03-05 08:44:09 51°16.689 2°52.872 10.2 25 6.7 101080 98
2007-03-05 08:44:14 51°16.705 2°52.862 11.8 278 6.7 101080 98
2007-03-05 08:44:19 51°16.722 2°52.852 14.8 21 6.7 101080 98
2007-03-05 08:44:25 51°16.741 2°52.84 14.5 283 6.7 101080 98
2007-03-05 08:44:30 51°16.758 2°52.83 14 24 6.7 101070 98
2007-03-05 08:44:35 51°16.774 2°52.821 11.2 282 6.7 101070 98
2007-03-05 08:44:39 51°16.786 2°52.812 11.1 25 6.7 101070 98
2007-03-05 08:44:44 51°16.802 2°52.801 11.1 286 6.7 101070 98
2007-03-05 08:44:49 51°16.818 2°52.791 10 22 6.7 101070 98
2007-03-05 08:44:55 51°16.837 2°52.779 11.9 287 6.7 101070 98
2007-03-05 08:44:59 51°16.849 2°52.771 13.2 21 6.7 101060 98
2007-03-05 08:45:04 51°16.865 2°52.761 11.1 281 6.7 101060 98
2007-03-05 08:45:09 51°16.881 2°52.75 11.1 21 6.7 101080 98
2007-03-05 08:45:15 51°16.9 2°52.738 11.3 287 6.7 101080 98
2007-03-05 08:45:19 51°16.912 2°52.729 12.8 21 6.7 101070 98
2007-03-05 08:45:24 51°16.928 2°52.719 12.8 279 6.7 101070 98
2007-03-05 08:45:30 51°16.947 2°52.707 13.5 23 6.7 101070 98
2007-03-05 08:45:35 51°16.963 2°52.696 11.9 285 6.7 101070 98
2007-03-05 08:45:39 51°16.976 2°52.688 10.6 23 6.7 101070 98
2007-03-05 08:45:44 51°16.992 2°52.679 13.6 282 6.7 101070 98
2007-03-05 08:45:49 51°17.008 2°52.668 13 22 6.8 101070 98
2007-03-05 08:45:55 51°17.028 2°52.655 13.8 287 6.8 101070 98
2007-03-05 08:46:00 51°17.044 2°52.646 12.7 18 6.7 101070 98
2007-03-05 08:46:04 51°17.057 2°52.637 11.4 283 6.7 101070 98
2007-03-05 08:46:09 51°17.074 2°52.626 12.1 24 6.7 101070 98
2007-03-05 08:46:15 51°17.093 2°52.613 12 278 6.7 101070 98
2007-03-05 08:46:20 51°17.109 2°52.603 11.7 23 6.8 101070 98
2007-03-05 08:46:24 51°17.121 2°52.595 11.5 280 6.8 101070 98
2007-03-05 08:46:29 51°17.137 2°52.585 11.4 24 6.8 101080 98
2007-03-05 08:46:34 51°17.153 2°52.575 10.9 286 6.8 101080 98
2007-03-05 08:46:39 51°17.169 2°52.565 15.6 24 6.8 101090 98
2007-03-05 08:46:45 51°17.189 2°52.553 13 282 6.8 101090 98
2007-03-05 08:46:49 51°17.202 2°52.545 12.9 23 6.8 101090 98
2007-03-05 08:46:55 51°17.221 2°52.533 12.6 282 6.8 101090 98
2007-03-05 08:46:59 51°17.234 2°52.524 13.5 26 6.8 101080 98
2007-03-05 08:47:04 51°17.25 2°52.514 16.4 286 6.8 101080 98
2007-03-05 08:47:10 51°17.27 2°52.501 13.5 20 6.8 101070 98
2007-03-05 08:47:15 51°17.286 2°52.491 16.2 285 6.8 101070 98
2007-03-05 08:47:19 51°17.299 2°52.482 13.6 246 6.8 101070 98
2007-03-05 08:47:24 51°17.315 2°52.472 11.9 282 6.8 101070 98
2007-03-05 08:47:29 51°17.331 2°52.46 11 23 6.8 101070 98
2007-03-05 08:47:35 51°17.351 2°52.448 11.9 286 6.8 101070 98
2007-03-05 08:47:40 51°17.367 2°52.436 13.2 22 6.8 101060 98
2007-03-05 08:47:44 51°17.38 2°52.428 11.7 284 6.8 101060 98
2007-03-05 08:47:49 51°17.396 2°52.417 12.5 21 6.8 101080 98
2007-03-05 08:47:54 51°17.412 2°52.406 15.1 283 6.8 101080 98
2007-03-05 08:47:59 51°17.428 2°52.396 11.4 248 6.8 101080 98
2007-03-05 08:48:04 51°17.445 2°52.385 13.2 286 6.8 101080 98
2007-03-05 08:48:09 51°17.46 2°52.375 12.7 21 6.8 101070 98
2007-03-05 08:48:15 51°17.48 2°52.362 12.7 281 6.8 101070 98
2007-03-05 08:48:20 51°17.496 2°52.351 13.2 248 6.8 101080 97
2007-03-05 08:48:24 51°17.509 2°52.343 12.8 282 6.8 101080 97
2007-03-05 08:48:29 51°17.525 2°52.331 14.2 23 6.8 101080 97
2007-03-05 08:48:34 51°17.541 2°52.321 14.4 280 6.8 101080 97
2007-03-05 08:48:39 51°17.557 2°52.31 12.2 25 6.8 101070 97
2007-03-05 08:48:44 51°17.574 2°52.3 12.2 280 6.8 101070 97
2007-03-05 08:48:49 51°17.589 2°52.288 13.5 20 6.8 101080 97
2007-03-05 08:48:55 51°17.609 2°52.277 11.8 283 6.8 101080 97
2007-03-05 08:48:59 51°17.622 2°52.268 11 24 6.9 101080 97
2007-03-05 08:49:04 51°17.638 2°52.258 13.6 281 6.9 101080 97
2007-03-05 08:49:10 51°17.657 2°52.246 12.9 248 6.9 101070 97
2007-03-05 08:49:15 51°17.673 2°52.238 12.9 280 6.9 101070 97
2007-03-05 08:49:19 51°17.686 2°52.228 14.1 22 6.9 101080 97
2007-03-05 08:49:25 51°17.705 2°52.216 13.9 286 6.9 101080 97
2007-03-05 08:49:29 51°17.718 2°52.207 13.3 249 6.9 101090 97
2007-03-05 08:49:35 51°17.737 2°52.194 11.2 278 6.9 101090 97
2007-03-05 08:49:39 51°17.75 2°52.187 15.4 23 6.9 101070 97
2007-03-05 08:49:44 51°17.765 2°52.174 13.2 286 6.9 101070 97
2007-03-05 08:49:50 51°17.784 2°52.161 13.5 22 6.9 101070 97
2007-03-05 08:49:55 51°17.8 2°52.151 12.8 277 6.9 101070 97
2007-03-05 08:49:59 51°17.813 2°52.142 15.2 247 6.9 101070 97
2007-03-05 08:50:04 51°17.829 2°52.131 13.2 281 6.9 101070 97
2007-03-05 08:50:09 51°17.844 2°52.119 14 23 6.9 101070 97
2007-03-05 08:50:15 51°17.863 2°52.105 14.3 284 6.9 101070 97
2007-03-05 08:50:19 51°17.875 2°52.095 14.6 19 6.9 101070 97
2007-03-05 08:50:24 51°17.892 2°52.085 12.7 282 6.9 101070 97
2007-03-05 08:50:29 51°17.907 2°52.072 12 23 6.9 101060 97
2007-03-05 08:50:35 51°17.925 2°52.058 12.9 284 6.9 101060 97
2007-03-05 08:50:40 51°17.941 2°52.047 12.6 23 6.9 101070 97
2007-03-05 08:50:45 51°17.956 2°52.035 12.3 287 6.9 101070 97
2007-03-05 08:50:49 51°17.969 2°52.027 12.8 19 6.9 101070 97
2007-03-05 08:50:55 51°17.987 2°52.013 12.9 279 6.9 101070 97
2007-03-05 08:51:00 51°18.003 2°52.002 13.4 248 6.9 101070 97
2007-03-05 08:51:04 51°18.015 2°51.993 13.4 281 6.9 101070 97
2007-03-05 08:51:09 51°18.03 2°51.98 14.4 24 6.9 101070 97
2007-03-05 08:51:14 51°18.045 2°51.968 12.2 283 6.9 101070 97
2007-03-05 08:51:19 51°18.06 2°51.956 13.2 23 6.9 101080 97
2007-03-05 08:51:25 51°18.078 2°51.941 14.4 284 6.9 101080 97
2007-03-05 08:51:29 51°18.091 2°51.931 13.4 23 6.9 101050 97
2007-03-05 08:51:34 51°18.107 2°51.92 13.8 285 6.9 101050 97
2007-03-05 08:51:39 51°18.122 2°51.908 15.9 22 7 101070 97
2007-03-05 08:51:44 51°18.138 2°51.897 15.8 280 7 101070 97
2007-03-05 08:51:50 51°18.157 2°51.882 14.2 21 7 101080 96
2007-03-05 08:51:55 51°18.172 2°51.87 12.6 281 7 101080 96
2007-03-05 08:51:59 51°18.184 2°51.86 14 21 7 101070 96
2007-03-05 08:52:04 51°18.2 2°51.847 15.3 283 7 101070 96
2007-03-05 08:52:09 51°18.215 2°51.835 14.6 22 7 101080 96
2007-03-05 08:52:15 51°18.234 2°51.819 17.5 285 7 101080 96
2007-03-05 08:52:19 51°18.246 2°51.81 15.1 249 7 101070 96
2007-03-05 08:52:24 51°18.262 2°51.797 15.3 281 7 101070 96
2007-03-05 08:52:29 51°18.278 2°51.784 14.8 23 7 101060 96
2007-03-05 08:52:35 51°18.297 2°51.769 17.1 283 7 101060 96
2007-03-05 08:52:39 51°18.309 2°51.76 15.9 20 7 101060 96
2007-03-05 08:52:44 51°18.325 2°51.747 14.4 279 7 101060 96
2007-03-05 08:52:49 51°18.34 2°51.735 15.7 25 7 101060 96
2007-03-05 08:52:54 51°18.356 2°51.722 12.8 281 7 101060 96
2007-03-05 08:53:00 51°18.374 2°51.707 12.3 22 7 101070 96
2007-03-05 08:53:04 51°18.387 2°51.697 16.3 286 7 101070 96
2007-03-05 08:53:09 51°18.402 2°51.684 15.5 251 7 101070 96
2007-03-05 08:53:15 51°18.421 2°51.669 12.3 286 7 101070 96
2007-03-05 08:53:19 51°18.434 2°51.659 13.2 247 7 101080 96
2007-03-05 08:53:24 51°18.449 2°51.647 12.3 278 7 101080 96
2007-03-05 08:53:29 51°18.465 2°51.635 14.2 25 7.1 101080 96
2007-03-05 08:53:35 51°18.484 2°51.62 14.3 282 7.1 101080 96
2007-03-05 08:53:39 51°18.496 2°51.609 13.3 26 7.1 101070 96
2007-03-05 08:53:45 51°18.515 2°51.594 13.4 283 7.1 101070 96
2007-03-05 08:53:49 51°18.527 2°51.584 11.7 246 7.1 101070 96
2007-03-05 08:53:54 51°18.543 2°51.572 12 282 7.1 101070 96
2007-03-05 08:53:59 51°18.558 2°51.559 14.6 21 7.1 101070 96
2007-03-05 08:54:04 51°18.573 2°51.547 14.7 282 7.1 101070 96
2007-03-05 08:54:10 51°18.589 2°51.533 16.8 23 7.1 101070 96
2007-03-05 08:54:15 51°18.603 2°51.521 14.7 284 7.1 101070 96
2007-03-05 08:54:19 51°18.613 2°51.513 12.7 19 7.1 101070 96
2007-03-05 08:54:24 51°18.626 2°51.502 13.2 284 7.1 101070 96
2007-03-05 08:54:29 51°18.638 2°51.491 13.3 20 7.1 101100 96
2007-03-05 08:54:35 51°18.652 2°51.477 14.2 285 7.1 101100 96
2007-03-05 08:54:40 51°18.664 2°51.466 16.4 23 7.1 101080 96
2007-03-05 08:54:44 51°18.673 2°51.457 14.9 282 7.1 101080 96
2007-03-05 08:54:49 51°18.685 2°51.445 16.7 247 7.2 101100 95
2007-03-05 08:54:55 51°18.699 2°51.432 17.4 281 7.2 101100 95
2007-03-05 08:55:00 51°18.711 2°51.422 13.1 254 7.1 101110 95
2007-03-05 08:55:04 51°18.719 2°51.412 14.1 286 7.1 101110 95
2007-03-05 08:55:09 51°18.73 2°51.401 15 24 7.1 101080 95
2007-03-05 08:55:14 51°18.741 2°51.39 14 285 7.1 101080 95
2007-03-05 08:55:19 51°18.752 2°51.379 14.3 248 7.1 101090 95
2007-03-05 08:55:25 51°18.765 2°51.366 12.1 281 7.1 101090 95
2007-03-05 08:55:29 51°18.773 2°51.358 10.9 23 7.1 101080 95
2007-03-05 08:55:35 51°18.787 2°51.346 11.6 281 7.1 101080 95
2007-03-05 08:55:40 51°18.797 2°51.335 15.9 24 7.1 101140 95
2007-03-05 08:55:44 51°18.806 2°51.327 16.9 279 7.1 101140 95
2007-03-05 08:55:49 51°18.817 2°51.317 15.7 23 7.1 101090 95
2007-03-05 08:55:54 51°18.828 2°51.307 13.8 282 7.1 101090 95
2007-03-05 08:55:59 51°18.838 2°51.296 15 21 7.1 101100 95
2007-03-05 08:56:05 51°18.851 2°51.284 14.4 285 7.1 101100 95
2007-03-05 08:56:09 51°18.859 2°51.275 12.4 25 7.2 101090 95
2007-03-05 08:56:15 51°18.872 2°51.263 13.7 284 7.2 101090 95
2007-03-05 08:56:19 51°18.88 2°51.255 10.5 23 7.2 101160 95
2007-03-05 08:56:24 51°18.891 2°51.244 12.2 282 7.2 101160 95
2007-03-05 08:56:30 51°18.903 2°51.231 13.4 249 7.2 101090 95
2007-03-05 08:56:35 51°18.914 2°51.221 16.2 283 7.2 101090 95
2007-03-05 08:56:39 51°18.922 2°51.212 12 247 7.2 101100 95
2007-03-05 08:56:44 51°18.933 2°51.201 12.6 282 7.2 101100 95
2007-03-05 08:56:49 51°18.944 2°51.191 15.8 21 7.2 101100 95
2007-03-05 08:56:55 51°18.957 2°51.178 14.9 279 7.2 101100 95
2007-03-05 08:56:59 51°18.965 2°51.17 16.5 250 7.2 101100 95
2007-03-05 08:57:04 51°18.976 2°51.159 14.1 282 7.2 101100 95
2007-03-05 08:57:09 51°18.987 2°51.149 15 249 7.2 101100 94
2007-03-05 08:57:15 51°19 2°51.138 14.5 286 7.2 101100 94
2007-03-05 08:57:19 51°19.008 2°51.13 16.5 19 7.2 101080 94
2007-03-05 08:57:24 51°19.02 2°51.121 14.2 279 7.2 101080 94
2007-03-05 08:57:29 51°19.03 2°51.11 13.6 247 7.2 101090 94
2007-03-05 08:57:34 51°19.04 2°51.1 12.8 280 7.2 101090 94
2007-03-05 08:57:39 51°19.051 2°51.089 11.7 250 7.2 101080 94
2007-03-05 08:57:44 51°19.062 2°51.078 16.4 283 7.2 101080 94
2007-03-05 08:57:49 51°19.072 2°51.068 14.7 23 7.2 101100 94
2007-03-05 08:57:55 51°19.085 2°51.055 13.3 284 7.2 101100 94
2007-03-05 08:57:59 51°19.094 2°51.046 15 248 7.2 101100 94
2007-03-05 08:58:04 51°19.104 2°51.035 16 282 7.2 101100 94
2007-03-05 08:58:09 51°19.115 2°51.024 14.1 22 7.3 101080 94
2007-03-05 08:58:14 51°19.125 2°51.013 18.2 283 7.3 101080 94
2007-03-05 08:58:19 51°19.136 2°51.002 17.5 251 7.3 101090 94
2007-03-05 08:58:25 51°19.149 2°50.989 16.1 283 7.3 101090 94
2007-03-05 08:58:29 51°19.157 2°50.98 15.7 250 7.3 101100 94
2007-03-05 08:58:35 51°19.17 2°50.968 13.6 283 7.3 101100 94
2007-03-05 08:58:39 51°19.178 2°50.958 14.8 245 7.3 101090 94
2007-03-05 08:58:44 51°19.188 2°50.949 17.6 280 7.3 101090 94
2007-03-05 08:58:49 51°19.199 2°50.938 14.1 248 7.3 101080 94
2007-03-05 08:58:54 51°19.209 2°50.928 18.3 280 7.3 101080 94
2007-03-05 08:58:59 51°19.22 2°50.918 15.6 23 7.3 101090 94
2007-03-05 08:59:04 51°19.23 2°50.907 12.8 283 7.3 101090 94
2007-03-05 08:59:09 51°19.24 2°50.897 13.4 20 7.3 101080 94
2007-03-05 08:59:15 51°19.251 2°50.885 14.6 279 7.3 101080 94
2007-03-05 08:59:19 51°19.258 2°50.878 12.4 249 7.3 101090 94
2007-03-05 08:59:24 51°19.266 2°50.869 14.6 281 7.3 101090 94
2007-03-05 08:59:29 51°19.272 2°50.86 14 248 7.3 101100 93
2007-03-05 08:59:35 51°19.28 2°50.849 16.6 283 7.3 101100 93
2007-03-05 08:59:39 51°19.284 2°50.843 14.1 22 7.3 101130 93
2007-03-05 08:59:44 51°19.289 2°50.835 15.3 283 7.3 101130 93
2007-03-05 08:59:49 51°19.293 2°50.828 15.1 23 7.3 101120 93
2007-03-05 08:59:54 51°19.296 2°50.823 13.5 284 7.3 101120 93
2007-03-05 08:59:59 51°19.298 2°50.818 17 23 7.3 101110 93
2007-03-05 09:00:04 51°19.3 2°50.814 15.4 286 7.3 101110 93
2007-03-05 09:00:09 51°19.301 2°50.81 13.8 247 7.3 101110 93
2007-03-05 09:00:15 51°19.302 2°50.807 14.7 284 7.3 101110 93
2007-03-05 09:00:19 51°19.303 2°50.805 12.7 245 7.3 101110 93
2007-03-05 09:00:24 51°19.304 2°50.803 12.7 282 7.3 101110 93
2007-03-05 09:00:30 51°19.304 2°50.802 11 248 7.3 101120 93
2007-03-05 09:00:35 51°19.304 2°50.801 13 282 7.3 101120 93
2007-03-05 09:00:39 51°19.304 2°50.802 14.9 247 7.3 101110 93
2007-03-05 09:00:45 51°19.304 2°50.801 11.8 285 7.3 101110 93
2007-03-05 09:00:49 51°19.304 2°50.802 14.6 251 7.3 101120 93
2007-03-05 09:00:55 51°19.304 2°50.802 13.5 283 7.3 101120 93
2007-03-05 09:00:59 51°19.304 2°50.802 18 253 7.3 101130 93
2007-03-05 09:01:04 51°19.304 2°50.802 19 281 7.3 101130 93
2007-03-05 09:01:10 51°19.304 2°50.802 16.6 258 7.3 101120 93
2007-03-05 09:01:15 51°19.304 2°50.803 15.4 279 7.3 101120 93
2007-03-05 09:01:19 51°19.304 2°50.803 14.1 256 7.3 101110 92
2007-03-05 09:01:24 51°19.304 2°50.803 15.8 283 7.3 101110 92
2007-03-05 09:01:29 51°19.304 2°50.804 21.7 259 7.3 101120 92
2007-03-05 09:01:35 51°19.304 2°50.805 16.5 281 7.3 101120 92
2007-03-05 09:01:39 51°19.303 2°50.805 17 259 7.3 101110 92
2007-03-05 09:01:44 51°19.303 2°50.806 16.4 282 7.3 101110 92
2007-03-05 09:01:49 51°19.303 2°50.808 18.5 259 7.3 101120 92
2007-03-05 09:01:55 51°19.302 2°50.808 17.3 284 7.3 101120 92
2007-03-05 09:02:00 51°19.302 2°50.809 12.7 263 7.3 101110 91
2007-03-05 09:02:04 51°19.302 2°50.811 12 283 7.3 101110 91
2007-03-05 09:02:09 51°19.301 2°50.812 15.4 259 7.3 101120 91
2007-03-05 09:02:14 51°19.3 2°50.812 11 287 7.3 101120 91
2007-03-05 09:02:20 51°19.3 2°50.814 8.3 264 7.3 101130 91
2007-03-05 09:02:25 51°19.299 2°50.815 10.9 285 7.3 101130 91
2007-03-05 09:02:29 51°19.299 2°50.815 12.9 269 7.3 101120 91
2007-03-05 09:02:34 51°19.298 2°50.816 12.9 281 7.3 101120 91
2007-03-05 09:02:39 51°19.298 2°50.817 11.2 270 7.3 101110 91
2007-03-05 09:02:45 51°19.297 2°50.817 14.8 286 7.3 101110 91
2007-03-05 09:02:50 51°19.296 2°50.818 13 268 7.3 101120 91
2007-03-05 09:02:55 51°19.295 2°50.819 11.1 282 7.3 101120 91
2007-03-05 09:02:59 51°19.295 2°50.82 10.2 264 7.3 101120 90
2007-03-05 09:03:04 51°19.294 2°50.82 10.8 284 7.3 101120 90
2007-03-05 09:03:09 51°19.293 2°50.82 12.1 265 7.3 101110 90
2007-03-05 09:03:15 51°19.293 2°50.821 14.4 278 7.3 101110 90
2007-03-05 09:03:19 51°19.292 2°50.822 12.2 268 7.3 101120 90
2007-03-05 09:03:24 51°19.291 2°50.822 11.2 282 7.3 101120 90
2007-03-05 09:03:30 51°19.29 2°50.823 10.6 265 7.3 101120 90
2007-03-05 09:03:35 51°19.29 2°50.823 12.9 282 7.3 101120 90
2007-03-05 09:03:39 51°19.29 2°50.824 9.7 268 7.4 101120 90
2007-03-05 09:03:44 51°19.289 2°50.824 10.9 283 7.4 101120 90
2007-03-05 09:03:49 51°19.288 2°50.824 9.1 264 7.4 101120 90
2007-03-05 09:03:55 51°19.287 2°50.825 11.5 280 7.4 101120 90
2007-03-05 09:03:59 51°19.287 2°50.825 10.8 266 7.4 101120 90
2007-03-05 09:04:04 51°19.286 2°50.825 9.2 280 7.4 101120 90
2007-03-05 09:04:09 51°19.285 2°50.825 8.6 266 7.4 101120 90
2007-03-05 09:04:15 51°19.284 2°50.826 10.8 280 7.4 101120 90
2007-03-05 09:04:20 51°19.284 2°50.826 9.2 270 7.4 101130 90
2007-03-05 09:04:24 51°19.283 2°50.826 7.9 280 7.4 101130 90
2007-03-05 09:04:29 51°19.283 2°50.827 9.5 269 7.4 101130 90
2007-03-05 09:04:34 51°19.282 2°50.828 9.2 279 7.4 101130 90
2007-03-05 09:04:39 51°19.282 2°50.828 11.4 267 7.5 101120 90
2007-03-05 09:04:44 51°19.281 2°50.828 10.6 283 7.5 101120 90
2007-03-05 09:04:49 51°19.281 2°50.828 14 266 7.5 101120 90
2007-03-05 09:04:55 51°19.28 2°50.829 12.4 284 7.5 101120 90
2007-03-05 09:04:59 51°19.279 2°50.829 10.1 265 7.5 101120 90
2007-03-05 09:05:04 51°19.279 2°50.829 8.2 281 7.5 101120 90
2007-03-05 09:05:10 51°19.278 2°50.83 11.6 268 7.5 101120 89
2007-03-05 09:05:15 51°19.278 2°50.83 8.8 283 7.5 101120 89
2007-03-05 09:05:19 51°19.277 2°50.83 9 267 7.4 101120 89
2007-03-05 09:05:25 51°19.276 2°50.831 7.5 279 7.4 101120 89
2007-03-05 09:05:29 51°19.275 2°50.831 7.2 264 7.4 101120 89
2007-03-05 09:05:35 51°19.275 2°50.831 8.3 281 7.4 101120 89
2007-03-05 09:05:39 51°19.275 2°50.832 10.7 265 7.4 101130 89
2007-03-05 09:05:44 51°19.274 2°50.832 10.9 283 7.4 101130 89
2007-03-05 09:05:49 51°19.273 2°50.832 7.4 262 7.4 101130 89
2007-03-05 09:05:54 51°19.273 2°50.832 10.1 288 7.4 101130 89
2007-03-05 09:05:59 51°19.272 2°50.832 7.9 261 7.4 101130 89
2007-03-05 09:06:04 51°19.272 2°50.833 8.4 283 7.4 101130 89
2007-03-05 09:06:09 51°19.271 2°50.833 7.3 264 7.4 101120 89
2007-03-05 09:06:15 51°19.27 2°50.833 7.2 285 7.4 101120 89
2007-03-05 09:06:19 51°19.27 2°50.833 10.2 268 7.5 101120 89
2007-03-05 09:06:24 51°19.27 2°50.834 7.8 285 7.5 101120 89
2007-03-05 09:06:29 51°19.269 2°50.834 7.8 266 7.4 101130 89
2007-03-05 09:06:35 51°19.269 2°50.834 8.9 280 7.4 101130 89
2007-03-05 09:06:40 51°19.268 2°50.835 9.5 264 7.5 101130 89
2007-03-05 09:06:44 51°19.268 2°50.835 6.9 282 7.5 101130 89
2007-03-05 09:06:49 51°19.267 2°50.835 11.4 262 7.5 101130 89
2007-03-05 09:06:54 51°19.267 2°50.836 11.1 280 7.5 101130 89
2007-03-05 09:06:59 51°19.266 2°50.836 8.5 263 7.4 101130 89
2007-03-05 09:07:04 51°19.266 2°50.837 10.3 284 7.4 101130 89
2007-03-05 09:07:09 51°19.265 2°50.837 11.8 264 7.4 101130 89
2007-03-05 09:07:15 51°19.264 2°50.838 9.4 281 7.4 101130 89
2007-03-05 09:07:19 51°19.264 2°50.838 8 264 7.4 101130 89
2007-03-05 09:07:24 51°19.263 2°50.838 10.2 285 7.4 101130 89
2007-03-05 09:07:30 51°19.263 2°50.839 9 266 7.4 101130 89
2007-03-05 09:07:35 51°19.262 2°50.84 8.3 281 7.4 101130 89
2007-03-05 09:07:39 51°19.262 2°50.84 10.4 269 7.4 101120 89
2007-03-05 09:07:44 51°19.261 2°50.841 8.9 285 7.4 101120 89
2007-03-05 09:07:50 51°19.261 2°50.841 9.2 264 7.4 101130 88
2007-03-05 09:07:55 51°19.261 2°50.843 10.3 280 7.4 101130 88
2007-03-05 09:07:59 51°19.26 2°50.842 8.5 265 7.4 101120 88
2007-03-05 09:08:04 51°19.26 2°50.843 8 284 7.4 101120 88
2007-03-05 09:08:09 51°19.259 2°50.844 7 264 7.4 101130 88
2007-03-05 09:08:15 51°19.259 2°50.844 7.5 280 7.4 101130 88
2007-03-05 09:08:20 51°19.258 2°50.845 10.5 260 7.4 101110 88
2007-03-05 09:08:24 51°19.257 2°50.844 7.2 -999 7.4 101110 88
2007-03-05 09:08:29 51°19.257 2°50.845 11.9 262 7.4 101130 88
2007-03-05 09:08:35 51°19.256 2°50.846 12.1 283 7.4 101130 88
2007-03-05 09:08:39 51°19.255 2°50.846 7.7 266 7.4 101120 88
2007-03-05 09:08:45 51°19.255 2°50.846 10.3 286 7.4 101120 88
2007-03-05 09:08:49 51°19.255 2°50.847 10.4 267 7.4 101130 89
2007-03-05 09:08:55 51°19.254 2°50.848 8.8 281 7.4 101130 89
2007-03-05 09:09:00 51°19.253 2°50.848 8.8 267 7.5 101120 89
2007-03-05 09:09:04 51°19.253 2°50.848 8.6 279 7.5 101120 89
2007-03-05 09:09:09 51°19.252 2°50.849 9 262 7.5 101130 89
2007-03-05 09:09:14 51°19.251 2°50.85 8.4 281 7.5 101130 89
2007-03-05 09:09:19 51°19.251 2°50.85 7.6 263 7.5 101140 89
2007-03-05 09:09:25 51°19.25 2°50.849 9.6 -999 7.5 101140 89
2007-03-05 09:09:29 51°19.25 2°50.85 7.9 265 7.5 101130 89
2007-03-05 09:09:35 51°19.249 2°50.851 9.1 278 7.5 101130 89
2007-03-05 09:09:39 51°19.248 2°50.851 9.2 263 7.5 101130 89
2007-03-05 09:09:44 51°19.248 2°50.851 10.5 282 7.5 101130 89
2007-03-05 09:09:50 51°19.247 2°50.852 8.4 263 7.5 101140 89
2007-03-05 09:09:55 51°19.246 2°50.853 8.7 284 7.5 101140 89
2007-03-05 09:09:59 51°19.246 2°50.853 10.6 263 7.5 101130 89
2007-03-05 09:10:04 51°19.245 2°50.854 8.4 285 7.5 101130 89
2007-03-05 09:10:10 51°19.244 2°50.855 8.9 262 7.5 101130 89
2007-03-05 09:10:15 51°19.244 2°50.855 7.6 280 7.5 101130 89
2007-03-05 09:10:19 51°19.243 2°50.855 10.5 266 7.5 101120 88
2007-03-05 09:10:24 51°19.242 2°50.856 9 281 7.5 101120 88
2007-03-05 09:10:29 51°19.242 2°50.856 14.1 267 7.4 101120 88
2007-03-05 09:10:35 51°19.241 2°50.856 11 282 7.4 101120 88
2007-03-05 09:10:39 51°19.241 2°50.857 11.4 268 7.4 101130 88
2007-03-05 09:10:44 51°19.24 2°50.858 10 284 7.4 101130 88
2007-03-05 09:10:49 51°19.239 2°50.858 12.2 266 7.4 101120 88
2007-03-05 09:10:55 51°19.239 2°50.859 10.1 284 7.4 101120 88
2007-03-05 09:10:59 51°19.238 2°50.859 10.5 263 7.4 101120 88
2007-03-05 09:11:04 51°19.238 2°50.86 10.4 280 7.4 101120 88
2007-03-05 09:11:09 51°19.237 2°50.86 10.3 264 7.4 101110 88
2007-03-05 09:11:15 51°19.237 2°50.86 8.9 282 7.4 101110 88
2007-03-05 09:11:20 51°19.236 2°50.861 9.2 264 7.4 101110 87
2007-03-05 09:11:24 51°19.236 2°50.862 11 -999 7.4 101110 87
2007-03-05 09:11:30 51°19.235 2°50.862 10.7 266 7.4 101120 87
2007-03-05 09:11:35 51°19.234 2°50.862 8.5 281 7.4 101120 87
2007-03-05 09:11:39 51°19.234 2°50.863 7.8 264 7.4 101120 87
2007-03-05 09:11:45 51°19.233 2°50.864 11.1 287 7.4 101120 87
2007-03-05 09:11:49 51°19.233 2°50.864 10 264 7.4 101110 87
2007-03-05 09:11:55 51°19.232 2°50.864 12.1 281 7.4 101110 87
2007-03-05 09:11:59 51°19.232 2°50.865 7.2 264 7.4 101120 87
2007-03-05 09:12:05 51°19.231 2°50.865 11.6 280 7.4 101120 87
2007-03-05 09:12:09 51°19.23 2°50.865 8.7 267 7.4 101120 87
2007-03-05 09:12:14 51°19.23 2°50.865 9.4 282 7.4 101120 87
2007-03-05 09:12:19 51°19.23 2°50.867 9.1 267 7.4 101120 87
2007-03-05 09:12:24 51°19.229 2°50.868 11.2 286 7.4 101120 87
2007-03-05 09:12:30 51°19.228 2°50.868 9.9 263 7.4 101120 87
2007-03-05 09:12:35 51°19.227 2°50.868 7.9 280 7.4 101120 87
2007-03-05 09:12:39 51°19.227 2°50.869 9.8 264 7.4 101130 87
2007-03-05 09:12:44 51°19.226 2°50.869 8.4 281 7.4 101130 87
2007-03-05 09:12:49 51°19.226 2°50.87 9 267 7.4 101120 87
2007-03-05 09:12:55 51°19.225 2°50.87 8.7 283 7.4 101120 87
2007-03-05 09:12:59 51°19.224 2°50.871 12.2 266 7.4 101140 87
2007-03-05 09:13:04 51°19.223 2°50.871 10 282 7.4 101140 87
2007-03-05 09:13:09 51°19.223 2°50.872 12.1 270 7.4 101130 87
2007-03-05 09:13:14 51°19.222 2°50.872 10.2 282 7.4 101130 87
2007-03-05 09:13:19 51°19.221 2°50.873 14.3 269 7.5 101130 87
2007-03-05 09:13:24 51°19.221 2°50.874 13.2 -999 7.5 101130 87
2007-03-05 09:13:29 51°19.22 2°50.874 12.5 265 7.5 101130 87
2007-03-05 09:13:35 51°19.219 2°50.875 9.6 281 7.5 101130 87
2007-03-05 09:13:40 51°19.219 2°50.876 11.2 267 7.5 101120 87
2007-03-05 09:13:44 51°19.218 2°50.875 12.8 284 7.5 101120 87
2007-03-05 09:13:50 51°19.217 2°50.877 13.6 23 7.4 101120 87
2007-03-05 09:13:55 51°19.216 2°50.877 14 285 7.4 101120 87
2007-03-05 09:13:59 51°19.216 2°50.877 12.1 270 7.4 101120 87
2007-03-05 09:14:05 51°19.215 2°50.878 9.3 281 7.4 101120 87
2007-03-05 09:14:09 51°19.214 2°50.879 9.9 264 7.5 101120 87
2007-03-05 09:14:15 51°19.214 2°50.88 9.4 285 7.5 101120 87
2007-03-05 09:14:19 51°19.213 2°50.88 10.6 265 7.5 101110 87
2007-03-05 09:14:24 51°19.212 2°50.881 13.1 -999 7.5 101110 87
2007-03-05 09:14:30 51°19.212 2°50.881 12.5 269 7.4 101110 87
2007-03-05 09:14:35 51°19.212 2°50.881 12.4 286 7.4 101110 87
2007-03-05 09:14:39 51°19.212 2°50.88 11.1 267 7.4 101120 86
2007-03-05 09:14:44 51°19.213 2°50.88 14.2 282 7.4 101120 86
2007-03-05 09:14:50 51°19.214 2°50.879 14.8 265 7.5 101120 86
2007-03-05 09:14:55 51°19.215 2°50.878 13.7 277 7.5 101120 86
2007-03-05 09:14:59 51°19.217 2°50.877 10.7 270 7.5 101130 86
2007-03-05 09:15:04 51°19.219 2°50.876 9.5 279 7.5 101130 86
2007-03-05 09:15:09 51°19.222 2°50.873 7.6 265 7.4 101130 86
2007-03-05 09:15:15 51°19.227 2°50.871 8.5 284 7.4 101130 86
2007-03-05 09:15:20 51°19.23 2°50.868 7 265 7.4 101130 86
2007-03-05 09:15:24 51°19.233 2°50.867 9 -999 7.4 101130 86
2007-03-05 09:15:29 51°19.238 2°50.865 9.8 26 7.5 101130 86
2007-03-05 09:15:35 51°19.243 2°50.864 11.4 78 7.5 101130 86
2007-03-05 09:15:40 51°19.248 2°50.865 8.2 24 7.5 101120 86
2007-03-05 09:15:45 51°19.253 2°50.866 8.1 80 7.5 101120 86
2007-03-05 09:15:49 51°19.257 2°50.868 8.3 22 7.5 101140 86
2007-03-05 09:15:54 51°19.262 2°50.871 11 76 7.5 101140 86
2007-03-05 09:15:59 51°19.267 2°50.873 11.4 24 7.5 101140 86
2007-03-05 09:16:05 51°19.273 2°50.878 8.9 76 7.5 101140 86
2007-03-05 09:16:10 51°19.279 2°50.882 10.9 25 7.5 101140 86
2007-03-05 09:16:15 51°19.284 2°50.886 9.6 82 7.5 101140 86
2007-03-05 09:16:19 51°19.288 2°50.891 9.2 24 7.5 101140 86
2007-03-05 09:16:25 51°19.294 2°50.898 11 77 7.5 101140 86
2007-03-05 09:16:29 51°19.299 2°50.902 5.5 24 7.5 101150 86
2007-03-05 09:16:35 51°19.304 2°50.91 5.2 75 7.5 101150 86
2007-03-05 09:16:39 51°19.308 2°50.916 6.3 18 7.5 101150 85
2007-03-05 09:16:44 51°19.312 2°50.923 4.5 75 7.5 101150 85
2007-03-05 09:16:50 51°19.317 2°50.934 9.2 27 7.5 101150 85
2007-03-05 09:16:55 51°19.321 2°50.941 7.5 80 7.5 101150 85
2007-03-05 09:16:59 51°19.324 2°50.949 6.5 19 7.5 101160 85
2007-03-05 09:17:04 51°19.329 2°50.956 7.8 79 7.5 101160 85
2007-03-05 09:17:10 51°19.332 2°50.967 8.7 23 7.5 101160 85
2007-03-05 09:17:15 51°19.336 2°50.976 9.4 79 7.5 101160 85
2007-03-05 09:17:19 51°19.34 2°50.983 8.4 20 7.5 101170 85
2007-03-05 09:17:24 51°19.343 2°50.991 9.1 -999 7.5 101170 85
2007-03-05 09:17:29 51°19.347 2°51 7.7 20 7.6 101160 85
2007-03-05 09:17:35 51°19.351 2°51.011 8.4 81 7.6 101160 85
2007-03-05 09:17:40 51°19.355 2°51.018 11 24 7.6 101160 85
2007-03-05 09:17:44 51°19.358 2°51.026 7.6 78 7.6 101160 85
2007-03-05 09:17:49 51°19.361 2°51.033 10.9 20 7.6 101160 85
2007-03-05 09:17:54 51°19.365 2°51.041 10.2 79 7.6 101160 85
2007-03-05 09:17:59 51°19.367 2°51.048 8.1 20 7.6 101160 84
2007-03-05 09:18:04 51°19.371 2°51.056 8.1 79 7.6 101160 84
2007-03-05 09:18:09 51°19.373 2°51.063 9.4 21 7.6 101170 84
2007-03-05 09:18:15 51°19.377 2°51.071 8.6 76 7.6 101170 84
2007-03-05 09:18:20 51°19.38 2°51.078 8.8 21 7.6 101170 84
2007-03-05 09:18:24 51°19.382 2°51.084 6.2 75 7.6 101170 84
2007-03-05 09:18:30 51°19.386 2°51.092 7.5 19 7.6 101160 84
2007-03-05 09:18:35 51°19.389 2°51.098 7.7 75 7.6 101160 84
2007-03-05 09:18:39 51°19.391 2°51.103 6.7 24 7.6 101160 85
2007-03-05 09:18:44 51°19.394 2°51.109 10.3 75 7.6 101160 85
2007-03-05 09:18:50 51°19.397 2°51.117 6.7 21 7.6 101150 84
2007-03-05 09:18:55 51°19.399 2°51.124 8.8 76 7.6 101150 84
2007-03-05 09:18:59 51°19.402 2°51.128 10.1 24 7.6 101160 84
2007-03-05 09:19:05 51°19.405 2°51.136 9.7 78 7.6 101160 84
2007-03-05 09:19:09 51°19.407 2°51.141 12.7 26 7.6 101160 84
2007-03-05 09:19:15 51°19.41 2°51.149 10.3 75 7.6 101160 84
2007-03-05 09:19:20 51°19.412 2°51.156 8.4 27 7.6 101150 84
2007-03-05 09:19:24 51°19.415 2°51.16 11 -999 7.6 101150 84
2007-03-05 09:19:29 51°19.417 2°51.167 7 24 7.6 101160 83
2007-03-05 09:19:35 51°19.42 2°51.175 5.6 75 7.6 101160 83
2007-03-05 09:19:39 51°19.422 2°51.18 9.9 19 7.6 101160 83
2007-03-05 09:19:45 51°19.425 2°51.187 9.9 75 7.6 101160 83
2007-03-05 09:19:50 51°19.428 2°51.194 7.7 24 7.6 101170 82
2007-03-05 09:19:55 51°19.43 2°51.2 10.1 80 7.6 101170 82
2007-03-05 09:20:00 51°19.433 2°51.207 7.8 21 7.6 101160 82
2007-03-05 09:20:04 51°19.435 2°51.211 7.8 76 7.6 101160 82
2007-03-05 09:20:09 51°19.438 2°51.218 9.3 21 7.6 101170 82
2007-03-05 09:20:14 51°19.44 2°51.224 8.2 80 7.6 101170 82
2007-03-05 09:20:19 51°19.443 2°51.23 8.7 23 7.6 101160 82
2007-03-05 09:20:24 51°19.446 2°51.237 6.7 80 7.6 101160 82
2007-03-05 09:20:29 51°19.448 2°51.243 7 25 7.6 101160 82
2007-03-05 09:20:35 51°19.451 2°51.251 8.1 79 7.6 101160 82
2007-03-05 09:20:39 51°19.453 2°51.255 8.3 24 7.6 101150 82
2007-03-05 09:20:44 51°19.455 2°51.262 6.8 77 7.6 101150 82
2007-03-05 09:20:50 51°19.459 2°51.269 7.6 26 7.6 101160 82
2007-03-05 09:20:55 51°19.46 2°51.275 7.4 76 7.6 101160 82
2007-03-05 09:20:59 51°19.463 2°51.28 6.6 19 7.6 101160 82
2007-03-05 09:21:04 51°19.465 2°51.286 8.7 74 7.6 101160 82
2007-03-05 09:21:10 51°19.467 2°51.294 7.9 27 7.7 101150 82
2007-03-05 09:21:15 51°19.47 2°51.3 8.7 78 7.7 101150 82
2007-03-05 09:21:19 51°19.472 2°51.304 9.8 23 7.7 101150 82
2007-03-05 09:21:24 51°19.474 2°51.311 9.2 73 7.7 101150 82
2007-03-05 09:21:29 51°19.477 2°51.316 5.8 20 7.7 101160 82
2007-03-05 09:21:35 51°19.48 2°51.324 10.3 79 7.7 101160 82
2007-03-05 09:21:39 51°19.482 2°51.328 7.6 27 7.7 101150 83
2007-03-05 09:21:44 51°19.484 2°51.334 8.3 78 7.7 101150 83
2007-03-05 09:21:50 51°19.487 2°51.341 9 20 7.8 101160 83
2007-03-05 09:21:55 51°19.489 2°51.348 11 79 7.8 101160 83
2007-03-05 09:21:59 51°19.491 2°51.352 7.2 22 7.8 101150 83
2007-03-05 09:22:04 51°19.494 2°51.358 9.5 75 7.8 101150 83
2007-03-05 09:22:09 51°19.496 2°51.365 8 22 7.8 101150 83
2007-03-05 09:22:15 51°19.499 2°51.372 5.3 79 7.8 101150 83
2007-03-05 09:22:20 51°19.501 2°51.378 8.1 24 7.7 101160 83
2007-03-05 09:22:24 51°19.503 2°51.383 8.3 80 7.7 101160 83
2007-03-05 09:22:30 51°19.506 2°51.39 9.4 20 7.7 101160 83
2007-03-05 09:22:35 51°19.508 2°51.396 10.7 76 7.7 101160 83
2007-03-05 09:22:40 51°19.511 2°51.402 10.1 21 7.8 101150 83
2007-03-05 09:22:44 51°19.512 2°51.407 10.9 77 7.8 101150 83
2007-03-05 09:22:49 51°19.515 2°51.413 10 21 7.7 101160 82
2007-03-05 09:22:55 51°19.517 2°51.42 11.3 76 7.7 101160 82
2007-03-05 09:22:59 51°19.519 2°51.425 10.3 24 7.7 101150 82
2007-03-05 09:23:05 51°19.522 2°51.432 11.1 82 7.7 101150 82
2007-03-05 09:23:09 51°19.524 2°51.437 9.3 24 7.7 101160 82
2007-03-05 09:23:14 51°19.526 2°51.444 9.3 75 7.7 101160 82
2007-03-05 09:23:19 51°19.529 2°51.449 11 27 7.7 101150 82
2007-03-05 09:23:25 51°19.531 2°51.457 8.5 -999 7.7 101150 82
2007-03-05 09:23:30 51°19.533 2°51.464 11.2 25 7.7 101160 81
2007-03-05 09:23:35 51°19.536 2°51.469 11.9 82 7.7 101160 81
2007-03-05 09:23:39 51°19.538 2°51.475 10.8 23 7.7 101160 81
2007-03-05 09:23:45 51°19.541 2°51.483 11.2 74 7.7 101160 81
2007-03-05 09:23:49 51°19.543 2°51.487 10.8 20 7.7 101170 82
2007-03-05 09:23:55 51°19.546 2°51.495 11 80 7.7 101170 82
2007-03-05 09:24:00 51°19.548 2°51.502 10.2 24 7.7 101160 82
2007-03-05 09:24:04 51°19.55 2°51.507 12.4 79 7.7 101160 82
2007-03-05 09:24:09 51°19.552 2°51.514 10.8 27 7.7 101150 81
2007-03-05 09:24:15 51°19.555 2°51.521 13.2 73 7.7 101150 81
2007-03-05 09:24:20 51°19.558 2°51.527 11.7 26 7.7 101160 81
2007-03-05 09:24:24 51°19.559 2°51.533 11.4 79 7.7 101160 81
2007-03-05 09:24:29 51°19.562 2°51.539 14 23 7.7 101160 82
2007-03-05 09:24:35 51°19.565 2°51.547 9.5 79 7.7 101160 82
2007-03-05 09:24:40 51°19.567 2°51.553 12.9 21 7.7 101160 81
2007-03-05 09:24:45 51°19.569 2°51.559 12.8 81 7.7 101160 81
2007-03-05 09:24:49 51°19.571 2°51.565 8.9 21 7.7 101160 81
2007-03-05 09:24:55 51°19.575 2°51.572 12.8 78 7.7 101160 81
2007-03-05 09:25:00 51°19.577 2°51.578 9 24 7.7 101160 81
2007-03-05 09:25:04 51°19.579 2°51.583 11.1 81 7.7 101160 81
2007-03-05 09:25:09 51°19.581 2°51.589 10.9 24 7.7 101160 81
2007-03-05 09:25:15 51°19.584 2°51.597 11.2 74 7.7 101160 81
2007-03-05 09:25:20 51°19.587 2°51.603 11.3 23 7.6 101150 80
2007-03-05 09:25:25 51°19.59 2°51.61 10.1 77 7.6 101150 80
2007-03-05 09:25:29 51°19.591 2°51.615 12.2 24 7.6 101150 80
2007-03-05 09:25:35 51°19.594 2°51.622 12.9 75 7.6 101150 80
2007-03-05 09:25:39 51°19.596 2°51.628 8.8 20 7.6 101160 80
2007-03-05 09:25:44 51°19.598 2°51.634 11.7 75 7.6 101160 80
2007-03-05 09:25:50 51°19.601 2°51.641 11.4 20 7.6 101150 81
2007-03-05 09:25:55 51°19.603 2°51.647 10.7 83 7.6 101150 81
2007-03-05 09:25:59 51°19.605 2°51.652 9.1 26 7.6 101160 81
2007-03-05 09:26:05 51°19.608 2°51.66 11.5 78 7.6 101160 81
2007-03-05 09:26:10 51°19.611 2°51.666 8 19 7.6 101150 80
2007-03-05 09:26:15 51°19.614 2°51.672 10.9 76 7.6 101150 80
2007-03-05 09:26:20 51°19.616 2°51.678 7.2 26 7.6 101160 81
2007-03-05 09:26:24 51°19.618 2°51.682 11.4 74 7.6 101160 81
2007-03-05 09:26:29 51°19.621 2°51.688 13.1 19 7.6 101160 81
2007-03-05 09:26:35 51°19.623 2°51.696 10 75 7.6 101160 81
2007-03-05 09:26:39 51°19.626 2°51.7 10.3 22 7.6 101150 81
2007-03-05 09:26:44 51°19.629 2°51.706 9 81 7.6 101150 81
2007-03-05 09:26:49 51°19.631 2°51.712 9.5 22 7.7 101150 81
2007-03-05 09:26:55 51°19.635 2°51.719 8.5 78 7.7 101150 81
2007-03-05 09:27:00 51°19.637 2°51.725 8.9 25 7.6 101160 81
2007-03-05 09:27:04 51°19.639 2°51.73 10.9 76 7.6 101160 81
2007-03-05 09:27:09 51°19.641 2°51.736 11 19 7.6 101160 81
2007-03-05 09:27:15 51°19.645 2°51.743 10.6 81 7.6 101160 81
2007-03-05 09:27:20 51°19.648 2°51.748 8.7 21 7.7 101160 81
2007-03-05 09:27:24 51°19.649 2°51.753 7.8 80 7.7 101160 81
2007-03-05 09:27:29 51°19.652 2°51.759 13 20 7.7 101160 81
2007-03-05 09:27:34 51°19.655 2°51.765 11 77 7.7 101160 81
2007-03-05 09:27:39 51°19.657 2°51.771 12.9 25 7.7 101160 81
2007-03-05 09:27:45 51°19.66 2°51.779 9.9 79 7.7 101160 81
2007-03-05 09:27:49 51°19.662 2°51.784 12 24 7.7 101150 81
2007-03-05 09:27:55 51°19.665 2°51.791 9.6 80 7.7 101150 81
2007-03-05 09:28:00 51°19.667 2°51.797 10 24 7.6 101160 81
2007-03-05 09:28:05 51°19.67 2°51.803 13.8 74 7.6 101160 81
2007-03-05 09:28:09 51°19.672 2°51.807 15.1 23 7.6 101160 81
2007-03-05 09:28:14 51°19.674 2°51.814 15.2 80 7.6 101160 81
2007-03-05 09:28:19 51°19.677 2°51.82 13.3 23 7.6 101170 81
2007-03-05 09:28:24 51°19.679 2°51.827 14 78 7.6 101170 81
2007-03-05 09:28:30 51°19.683 2°51.834 12 20 7.6 101160 81
2007-03-05 09:28:35 51°19.686 2°51.84 11.2 77 7.6 101160 81
2007-03-05 09:28:40 51°19.687 2°51.848 12.2 22 7.6 101160 80
2007-03-05 09:28:44 51°19.69 2°51.852 13.5 80 7.6 101160 80
2007-03-05 09:28:49 51°19.692 2°51.859 12.6 26 7.6 101150 80
2007-03-05 09:28:55 51°19.695 2°51.867 13.2 74 7.6 101150 80
2007-03-05 09:28:59 51°19.697 2°51.872 11.1 21 7.6 101160 81
2007-03-05 09:29:04 51°19.699 2°51.878 13 76 7.6 101160 81
2007-03-05 09:29:09 51°19.701 2°51.885 13.3 26 7.6 101150 81
2007-03-05 09:29:15 51°19.704 2°51.893 12.1 81 7.6 101150 81
2007-03-05 09:29:19 51°19.706 2°51.897 14.7 24 7.6 101160 81
2007-03-05 09:29:24 51°19.709 2°51.904 12 78 7.6 101160 81
2007-03-05 09:29:29 51°19.712 2°51.909 14.4 20 7.6 101160 81
2007-03-05 09:29:35 51°19.714 2°51.918 12.8 75 7.6 101160 81
2007-03-05 09:29:40 51°19.717 2°51.923 12.4 25 7.6 101160 81
2007-03-05 09:29:44 51°19.719 2°51.929 14.7 74 7.6 101160 81
2007-03-05 09:29:50 51°19.722 2°51.936 13.2 23 7.6 101150 81
2007-03-05 09:29:55 51°19.725 2°51.942 13.7 77 7.6 101150 81
2007-03-05 09:29:59 51°19.727 2°51.947 13.2 23 7.6 101170 81
2007-03-05 09:30:05 51°19.73 2°51.954 12.3 79 7.6 101170 81
2007-03-05 09:30:09 51°19.733 2°51.959 9.8 21 7.6 101160 81
2007-03-05 09:30:15 51°19.736 2°51.966 12.5 78 7.6 101160 81
2007-03-05 09:30:19 51°19.738 2°51.971 13.1 26 7.6 101160 81
2007-03-05 09:30:24 51°19.74 2°51.978 11.4 79 7.6 101160 81
2007-03-05 09:30:30 51°19.743 2°51.986 9.9 26 7.6 101160 81
2007-03-05 09:30:35 51°19.746 2°51.991 12.6 82 7.6 101160 81
2007-03-05 09:30:39 51°19.748 2°51.996 12.5 21 7.6 101170 81
2007-03-05 09:30:44 51°19.751 2°52.002 11.2 78 7.6 101170 81
2007-03-05 09:30:50 51°19.754 2°52.01 12.9 19 7.7 101170 82
2007-03-05 09:30:55 51°19.757 2°52.016 11.5 74 7.7 101170 82
2007-03-05 09:30:59 51°19.759 2°52.021 11 20 7.7 101160 82
2007-03-05 09:31:04 51°19.761 2°52.026 12.4 80 7.7 101160 82
2007-03-05 09:31:09 51°19.764 2°52.032 13 25 7.7 101170 82
2007-03-05 09:31:15 51°19.767 2°52.04 10 76 7.7 101170 82
2007-03-05 09:31:20 51°19.77 2°52.046 8.5 24 7.7 101170 82
2007-03-05 09:31:24 51°19.772 2°52.051 12.3 79 7.7 101170 82
2007-03-05 09:31:29 51°19.775 2°52.056 13.6 24 7.7 101160 82
2007-03-05 09:31:35 51°19.779 2°52.063 12.5 78 7.7 101160 82
2007-03-05 09:31:40 51°19.781 2°52.07 12.7 24 7.7 101150 83
2007-03-05 09:31:45 51°19.784 2°52.076 12.5 81 7.7 101150 83
2007-03-05 09:31:49 51°19.786 2°52.08 11.7 25 7.7 101170 83
2007-03-05 09:31:54 51°19.789 2°52.086 15.8 78 7.7 101170 83
2007-03-05 09:32:00 51°19.793 2°52.093 10 24 7.7 101180 83
2007-03-05 09:32:05 51°19.796 2°52.099 11.4 81 7.7 101180 83
2007-03-05 09:32:10 51°19.798 2°52.105 12.3 24 7.7 101170 83
2007-03-05 09:32:15 51°19.801 2°52.111 12.3 80 7.7 101170 83
2007-03-05 09:32:19 51°19.804 2°52.116 11.5 24 7.6 101170 83
2007-03-05 09:32:25 51°19.807 2°52.123 14.3 79 7.6 101170 83
2007-03-05 09:32:29 51°19.809 2°52.128 13.2 24 7.6 101160 83
2007-03-05 09:32:35 51°19.813 2°52.135 12.6 73 7.6 101160 83
2007-03-05 09:32:39 51°19.815 2°52.14 11.5 24 7.6 101160 82
2007-03-05 09:32:45 51°19.818 2°52.148 11.7 82 7.6 101160 82
2007-03-05 09:32:50 51°19.822 2°52.153 14.1 26 7.6 101170 82
2007-03-05 09:32:55 51°19.824 2°52.159 10.1 77 7.6 101170 82
2007-03-05 09:32:59 51°19.827 2°52.164 13.3 21 7.6 101160 81
2007-03-05 09:33:04 51°19.83 2°52.17 13.7 77 7.6 101160 81
2007-03-05 09:33:10 51°19.833 2°52.177 10.2 24 7.6 101160 81
2007-03-05 09:33:15 51°19.836 2°52.183 12.5 81 7.6 101160 81
2007-03-05 09:33:19 51°19.838 2°52.188 9.9 25 7.6 101170 82
2007-03-05 09:33:24 51°19.841 2°52.194 11.6 75 7.6 101170 82
2007-03-05 09:33:29 51°19.843 2°52.2 13.2 23 7.6 101180 82
2007-03-05 09:33:35 51°19.847 2°52.207 10.5 81 7.6 101180 82
2007-03-05 09:33:40 51°19.849 2°52.213 13.4 24 7.6 101160 82
2007-03-05 09:33:44 51°19.852 2°52.218 8.8 81 7.6 101160 82
2007-03-05 09:33:49 51°19.854 2°52.224 9 24 7.6 101160 82
2007-03-05 09:33:55 51°19.858 2°52.232 12.8 77 7.6 101160 82
2007-03-05 09:33:59 51°19.86 2°52.236 12.5 23 7.6 101160 82
2007-03-05 09:34:04 51°19.863 2°52.243 13.8 77 7.6 101160 82
2007-03-05 09:34:09 51°19.866 2°52.248 14.7 21 7.6 101170 82
2007-03-05 09:34:15 51°19.869 2°52.256 12.7 83 7.6 101170 82
2007-03-05 09:34:20 51°19.872 2°52.262 14.8 23 7.6 101180 82
2007-03-05 09:34:24 51°19.874 2°52.267 10.6 82 7.6 101180 82
2007-03-05 09:34:30 51°19.878 2°52.274 11.8 23 7.6 101170 82
2007-03-05 09:34:35 51°19.88 2°52.28 11 82 7.6 101170 82
2007-03-05 09:34:39 51°19.882 2°52.285 10.4 25 7.6 101170 81
2007-03-05 09:34:45 51°19.886 2°52.292 13.2 79 7.6 101170 81
2007-03-05 09:34:49 51°19.888 2°52.298 10.8 22 7.6 101170 81
2007-03-05 09:34:55 51°19.891 2°52.305 10.9 78 7.6 101170 81
2007-03-05 09:34:59 51°19.893 2°52.31 13 23 7.6 101170 81
2007-03-05 09:35:05 51°19.897 2°52.317 10 81 7.6 101170 81
2007-03-05 09:35:09 51°19.899 2°52.322 13.6 26 7.6 101170 81
2007-03-05 09:35:15 51°19.902 2°52.329 13.6 82 7.6 101170 81
2007-03-05 09:35:20 51°19.905 2°52.335 12.1 24 7.6 101170 81
2007-03-05 09:35:24 51°19.907 2°52.34 13.4 74 7.6 101170 81
2007-03-05 09:35:29 51°19.91 2°52.346 9.9 19 7.6 101170 81
2007-03-05 09:35:35 51°19.912 2°52.353 13 77 7.6 101170 81
2007-03-05 09:35:39 51°19.915 2°52.358 11.8 23 7.6 101160 81
2007-03-05 09:35:45 51°19.918 2°52.366 12.1 79 7.6 101160 81
2007-03-05 09:35:49 51°19.92 2°52.37 13.1 24 7.6 101170 81
2007-03-05 09:35:55 51°19.923 2°52.377 11.5 78 7.6 101170 81
2007-03-05 09:36:00 51°19.926 2°52.383 11.1 23 7.6 101170 81
2007-03-05 09:36:04 51°19.928 2°52.388 12.7 73 7.6 101170 81
2007-03-05 09:36:09 51°19.931 2°52.394 13.5 22 7.6 101170 81
2007-03-05 09:36:15 51°19.935 2°52.401 12.5 73 7.6 101170 81
2007-03-05 09:36:19 51°19.937 2°52.406 13 26 7.6 101160 81
2007-03-05 09:36:25 51°19.94 2°52.414 14 75 7.6 101160 81
2007-03-05 09:36:29 51°19.942 2°52.419 11 22 7.6 101170 80
2007-03-05 09:36:35 51°19.945 2°52.426 14.2 77 7.6 101170 80
2007-03-05 09:36:39 51°19.947 2°52.431 13.3 45 7.6 101170 80
2007-03-05 09:36:44 51°19.95 2°52.438 12.9 79 7.6 101170 80
2007-03-05 09:36:50 51°19.953 2°52.444 12.4 21 7.6 101180 80
2007-03-05 09:36:55 51°19.956 2°52.45 12.9 82 7.6 101180 80
2007-03-05 09:36:59 51°19.958 2°52.455 15.4 24 7.6 101170 80
2007-03-05 09:37:05 51°19.962 2°52.462 13.2 81 7.6 101170 80
2007-03-05 09:37:10 51°19.964 2°52.469 14.1 24 7.6 101170 80
2007-03-05 09:37:15 51°19.967 2°52.474 14.8 78 7.6 101170 80
2007-03-05 09:37:19 51°19.969 2°52.48 12.6 24 7.6 101170 80
2007-03-05 09:37:24 51°19.972 2°52.486 13.7 77 7.6 101170 80
2007-03-05 09:37:30 51°19.976 2°52.493 13.8 20 7.6 101190 80
2007-03-05 09:37:35 51°19.978 2°52.499 14.8 76 7.6 101190 80
2007-03-05 09:37:39 51°19.981 2°52.504 15.1 22 7.6 101180 80
2007-03-05 09:37:44 51°19.983 2°52.511 15.5 77 7.6 101180 80
2007-03-05 09:37:49 51°19.986 2°52.517 13.1 23 7.6 101170 80
2007-03-05 09:37:55 51°19.989 2°52.524 14.7 78 7.6 101170 80
2007-03-05 09:37:59 51°19.991 2°52.53 11.7 23 7.6 101190 80
2007-03-05 09:38:04 51°19.994 2°52.536 10.9 77 7.6 101190 80
2007-03-05 09:38:09 51°19.997 2°52.542 13.4 23 7.6 101180 80
2007-03-05 09:38:15 51°20 2°52.55 10.5 78 7.6 101180 80
2007-03-05 09:38:20 51°20.003 2°52.556 10.4 24 7.6 101180 79
2007-03-05 09:38:24 51°20.005 2°52.561 12.5 76 7.6 101180 79
2007-03-05 09:38:29 51°20.008 2°52.567 8.5 26 7.6 101160 80
2007-03-05 09:38:34 51°20.011 2°52.573 8.3 79 7.6 101160 80
2007-03-05 09:38:40 51°20.014 2°52.581 7.3 22 7.6 101160 79
2007-03-05 09:38:45 51°20.018 2°52.586 10.6 74 7.6 101160 79
2007-03-05 09:38:49 51°20.02 2°52.591 10.8 23 7.6 101180 79
2007-03-05 09:38:55 51°20.023 2°52.598 11.9 74 7.6 101180 79
2007-03-05 09:39:00 51°20.026 2°52.604 6.7 21 7.6 101180 80
2007-03-05 09:39:05 51°20.029 2°52.61 6.3 75 7.6 101180 80
2007-03-05 09:39:09 51°20.031 2°52.615 7.6 25 7.7 101160 80
2007-03-05 09:39:14 51°20.035 2°52.62 8.1 74 7.7 101160 80
2007-03-05 09:39:19 51°20.037 2°52.626 10.2 26 7.7 101160 80
2007-03-05 09:39:25 51°20.041 2°52.633 11.6 81 7.7 101160 80